sensor_id;sensor_type;location;lat;lon;timestamp;noise_LAeq;noise_LA_min;noise_LA_max;noise_LA01;noise_LA95
66449;Laerm;56828;52.294;4.666;2023-01-08T00:00:23;43.66;33.93;58.73;;
66449;Laerm;56828;52.294;4.666;2023-01-08T00:00:50;41.43;35.25;51.00;;
66449;Laerm;56828;52.294;4.666;2023-01-08T00:01:05;38.76;33.19;46.94;;
66449;Laerm;56828;52.294;4.666;2023-01-08T00:01:20;43.23;38.32;54.03;;
66449;Laerm;56828;52.294;4.666;2023-01-08T00:01:30;42.86;35.87;52.44;;
66449;Laerm;56828;52.294;4.666;2023-01-08T00:01:43;42.58;35.53;54.45;;
66449;Laerm;56828;52.294;4.666;2023-01-08T00:01:56;37.45;34.24;47.77;;
66449;Laerm;56828;52.294;4.666;2023-01-08T00:02:11;37.29;34.51;42.92;;
66449;Laerm;56828;52.294;4.666;2023-01-08T00:02:28;36.41;33.54;40.39;;
66449;Laerm;56828;52.294;4.666;2023-01-08T00:02:39;37.87;35.73;42.21;;
66449;Laerm;56828;52.294;4.666;2023-01-08T00:02:49;36.97;33.65;40.68;;
66449;Laerm;56828;52.294;4.666;2023-01-08T00:03:00;36.20;34.69;37.80;;
66449;Laerm;56828;52.294;4.666;2023-01-08T00:03:11;36.01;32.78;46.20;;
66449;Laerm;56828;52.294;4.666;2023-01-08T00:03:22;34.90;33.05;41.09;;
66449;Laerm;56828;52.294;4.666;2023-01-08T00:03:33;36.86;33.50;47.62;;
66449;Laerm;56828;52.294;4.666;2023-01-08T00:03:43;45.65;34.59;57.62;;
66449;Laerm;56828;52.294;4.666;2023-01-08T00:03:54;44.50;35.26;58.74;;
66449;Laerm;56828;52.294;4.666;2023-01-08T00:04:04;46.75;34.35;63.19;;
66449;Laerm;56828;52.294;4.666;2023-01-08T00:04:15;37.21;34.65;47.39;;
66449;Laerm;56828;52.294;4.666;2023-01-08T00:04:27;37.58;34.86;40.76;;
66449;Laerm;56828;52.294;4.666;2023-01-08T00:04:37;39.34;34.37;48.30;;
66449;Laerm;56828;52.294;4.666;2023-01-08T00:04:47;38.16;34.32;49.01;;
66449;Laerm;56828;52.294;4.666;2023-01-08T00:04:58;36.46;34.37;44.92;;
66449;Laerm;56828;52.294;4.666;2023-01-08T00:05:08;37.23;33.53;40.87;;
66449;Laerm;56828;52.294;4.666;2023-01-08T00:05:20;36.07;33.52;39.20;;
66449;Laerm;56828;52.294;4.666;2023-01-08T00:05:31;38.84;34.39;41.34;;
66449;Laerm;56828;52.294;4.666;2023-01-08T00:05:41;39.85;37.00;49.27;;
66449;Laerm;56828;52.294;4.666;2023-01-08T00:05:52;38.49;35.67;41.80;;
66449;Laerm;56828;52.294;4.666;2023-01-08T00:06:02;37.01;34.42;39.53;;
66449;Laerm;56828;52.294;4.666;2023-01-08T00:06:14;35.16;33.39;38.45;;
66449;Laerm;56828;52.294;4.666;2023-01-08T00:06:25;37.37;33.49;47.40;;
66449;Laerm;56828;52.294;4.666;2023-01-08T00:06:36;34.81;32.58;37.68;;
66449;Laerm;56828;52.294;4.666;2023-01-08T00:06:46;35.81;33.62;41.16;;
66449;Laerm;56828;52.294;4.666;2023-01-08T00:06:56;36.32;34.11;42.19;;
66449;Laerm;56828;52.294;4.666;2023-01-08T00:07:07;39.12;33.45;50.98;;
66449;Laerm;56828;52.294;4.666;2023-01-08T00:07:17;37.61;34.32;41.20;;
66449;Laerm;56828;52.294;4.666;2023-01-08T00:07:28;46.16;36.25;59.18;;
66449;Laerm;56828;52.294;4.666;2023-01-08T00:07:38;38.10;34.34;44.06;;
66449;Laerm;56828;52.294;4.666;2023-01-08T00:07:49;36.84;33.81;40.42;;
66449;Laerm;56828;52.294;4.666;2023-01-08T00:07:59;37.02;34.96;39.63;;
66449;Laerm;56828;52.294;4.666;2023-01-08T00:08:10;37.78;35.59;40.48;;
66449;Laerm;56828;52.294;4.666;2023-01-08T00:08:20;38.08;36.06;40.24;;
66449;Laerm;56828;52.294;4.666;2023-01-08T00:08:35;37.15;34.96;39.25;;
66449;Laerm;56828;52.294;4.666;2023-01-08T00:08:49;42.65;35.68;48.64;;
66449;Laerm;56828;52.294;4.666;2023-01-08T00:08:59;43.94;36.78;50.26;;
66449;Laerm;56828;52.294;4.666;2023-01-08T00:09:10;38.42;35.18;42.32;;
66449;Laerm;56828;52.294;4.666;2023-01-08T00:09:21;38.70;35.35;51.22;;
66449;Laerm;56828;52.294;4.666;2023-01-08T00:09:36;38.18;35.46;45.13;;
66449;Laerm;56828;52.294;4.666;2023-01-08T00:09:46;37.78;35.21;44.04;;
66449;Laerm;56828;52.294;4.666;2023-01-08T00:09:59;37.45;35.48;39.23;;
66449;Laerm;56828;52.294;4.666;2023-01-08T00:10:09;37.35;34.69;39.05;;
66449;Laerm;56828;52.294;4.666;2023-01-08T00:10:20;38.12;34.91;42.03;;
66449;Laerm;56828;52.294;4.666;2023-01-08T00:10:30;37.69;35.23;45.03;;
66449;Laerm;56828;52.294;4.666;2023-01-08T00:10:40;39.52;35.42;52.16;;
66449;Laerm;56828;52.294;4.666;2023-01-08T00:10:54;37.10;34.62;45.98;;
66449;Laerm;56828;52.294;4.666;2023-01-08T00:11:04;36.59;34.24;43.17;;
66449;Laerm;56828;52.294;4.666;2023-01-08T00:11:15;37.16;34.61;40.19;;
66449;Laerm;56828;52.294;4.666;2023-01-08T00:11:28;37.01;35.39;39.94;;
66449;Laerm;56828;52.294;4.666;2023-01-08T00:11:39;37.34;34.24;44.37;;
66449;Laerm;56828;52.294;4.666;2023-01-08T00:11:50;37.12;34.47;44.20;;
66449;Laerm;56828;52.294;4.666;2023-01-08T00:12:00;36.95;34.90;38.90;;
66449;Laerm;56828;52.294;4.666;2023-01-08T00:12:10;36.08;33.98;40.53;;
66449;Laerm;56828;52.294;4.666;2023-01-08T00:12:21;36.22;33.77;46.12;;
66449;Laerm;56828;52.294;4.666;2023-01-08T00:12:31;35.82;33.70;40.70;;
66449;Laerm;56828;52.294;4.666;2023-01-08T00:12:42;35.12;32.71;38.80;;
66449;Laerm;56828;52.294;4.666;2023-01-08T00:12:53;35.55;32.87;42.33;;
66449;Laerm;56828;52.294;4.666;2023-01-08T00:13:04;34.10;32.42;38.84;;
66449;Laerm;56828;52.294;4.666;2023-01-08T00:13:15;34.20;31.99;37.09;;
66449;Laerm;56828;52.294;4.666;2023-01-08T00:13:26;33.74;32.04;37.15;;
66449;Laerm;56828;52.294;4.666;2023-01-08T00:13:37;33.77;32.09;35.53;;
66449;Laerm;56828;52.294;4.666;2023-01-08T00:13:52;35.11;32.60;37.26;;
66449;Laerm;56828;52.294;4.666;2023-01-08T00:14:03;35.96;33.95;38.93;;
66449;Laerm;56828;52.294;4.666;2023-01-08T00:14:13;35.41;33.53;36.99;;
66449;Laerm;56828;52.294;4.666;2023-01-08T00:14:23;35.95;33.45;40.92;;
66449;Laerm;56828;52.294;4.666;2023-01-08T00:14:34;35.05;32.62;37.81;;
66449;Laerm;56828;52.294;4.666;2023-01-08T00:14:44;34.78;32.79;37.97;;
66449;Laerm;56828;52.294;4.666;2023-01-08T00:14:54;35.22;33.15;37.22;;
66449;Laerm;56828;52.294;4.666;2023-01-08T00:15:05;36.28;32.89;45.96;;
66449;Laerm;56828;52.294;4.666;2023-01-08T00:15:15;36.02;33.48;41.23;;
66449;Laerm;56828;52.294;4.666;2023-01-08T00:15:26;34.87;32.73;37.51;;
66449;Laerm;56828;52.294;4.666;2023-01-08T00:15:37;35.00;32.33;38.08;;
66449;Laerm;56828;52.294;4.666;2023-01-08T00:15:47;36.25;33.96;41.82;;
66449;Laerm;56828;52.294;4.666;2023-01-08T00:16:01;36.26;33.77;41.60;;
66449;Laerm;56828;52.294;4.666;2023-01-08T00:16:17;35.28;33.49;37.45;;
66449;Laerm;56828;52.294;4.666;2023-01-08T00:16:28;35.61;33.06;41.70;;
66449;Laerm;56828;52.294;4.666;2023-01-08T00:16:38;37.51;33.91;43.90;;
66449;Laerm;56828;52.294;4.666;2023-01-08T00:16:48;36.03;33.28;48.71;;
66449;Laerm;56828;52.294;4.666;2023-01-08T00:17:37;35.84;33.25;41.98;;
66449;Laerm;56828;52.294;4.666;2023-01-08T00:17:47;34.97;33.45;38.00;;
66449;Laerm;56828;52.294;4.666;2023-01-08T00:17:58;35.30;33.33;37.98;;
66449;Laerm;56828;52.294;4.666;2023-01-08T00:18:08;35.06;33.23;37.85;;
66449;Laerm;56828;52.294;4.666;2023-01-08T00:18:19;35.48;33.59;37.36;;
66449;Laerm;56828;52.294;4.666;2023-01-08T00:18:29;35.91;33.81;38.91;;
66449;Laerm;56828;52.294;4.666;2023-01-08T00:18:41;35.07;33.54;38.03;;
66449;Laerm;56828;52.294;4.666;2023-01-08T00:18:52;36.21;33.50;39.67;;
66449;Laerm;56828;52.294;4.666;2023-01-08T00:19:02;39.51;35.77;46.64;;
66449;Laerm;56828;52.294;4.666;2023-01-08T00:19:13;40.76;35.79;48.61;;
66449;Laerm;56828;52.294;4.666;2023-01-08T00:19:23;36.32;33.54;39.01;;
66449;Laerm;56828;52.294;4.666;2023-01-08T00:19:38;34.94;33.23;37.20;;
66449;Laerm;56828;52.294;4.666;2023-01-08T00:19:51;37.51;33.47;47.20;;
66449;Laerm;56828;52.294;4.666;2023-01-08T00:20:01;36.95;33.95;49.39;;
66449;Laerm;56828;52.294;4.666;2023-01-08T00:20:12;36.57;33.07;42.15;;
66449;Laerm;56828;52.294;4.666;2023-01-08T00:20:22;39.87;34.62;47.03;;
66449;Laerm;56828;52.294;4.666;2023-01-08T00:20:33;36.70;34.62;39.69;;
66449;Laerm;56828;52.294;4.666;2023-01-08T00:20:44;36.96;34.30;42.12;;
66449;Laerm;56828;52.294;4.666;2023-01-08T00:20:54;38.12;34.90;43.48;;
66449;Laerm;56828;52.294;4.666;2023-01-08T00:21:05;36.20;34.08;38.19;;
66449;Laerm;56828;52.294;4.666;2023-01-08T00:21:15;35.41;33.31;39.00;;
66449;Laerm;56828;52.294;4.666;2023-01-08T00:21:25;35.97;33.07;43.01;;
66449;Laerm;56828;52.294;4.666;2023-01-08T00:21:36;36.44;34.60;44.54;;
66449;Laerm;56828;52.294;4.666;2023-01-08T00:21:46;37.90;34.56;47.84;;
66449;Laerm;56828;52.294;4.666;2023-01-08T00:21:57;37.27;33.87;42.88;;
66449;Laerm;56828;52.294;4.666;2023-01-08T00:22:07;40.29;33.98;50.94;;
66449;Laerm;56828;52.294;4.666;2023-01-08T00:22:18;38.69;36.23;42.06;;
66449;Laerm;56828;52.294;4.666;2023-01-08T00:22:28;38.09;34.87;41.86;;
66449;Laerm;56828;52.294;4.666;2023-01-08T00:22:39;37.54;34.94;41.65;;
66449;Laerm;56828;52.294;4.666;2023-01-08T00:22:54;36.35;33.93;40.89;;
66449;Laerm;56828;52.294;4.666;2023-01-08T00:23:04;36.25;33.73;38.45;;
66449;Laerm;56828;52.294;4.666;2023-01-08T00:23:15;35.43;33.70;38.71;;
66449;Laerm;56828;52.294;4.666;2023-01-08T00:23:26;36.36;33.65;39.47;;
66449;Laerm;56828;52.294;4.666;2023-01-08T00:23:37;37.07;34.40;42.96;;
66449;Laerm;56828;52.294;4.666;2023-01-08T00:23:47;37.96;33.82;47.80;;
66449;Laerm;56828;52.294;4.666;2023-01-08T00:23:57;35.80;34.46;39.42;;
66449;Laerm;56828;52.294;4.666;2023-01-08T00:24:08;36.15;34.19;37.83;;
66449;Laerm;56828;52.294;4.666;2023-01-08T00:24:19;36.43;33.67;39.70;;
66449;Laerm;56828;52.294;4.666;2023-01-08T00:24:38;36.07;33.32;42.68;;
66449;Laerm;56828;52.294;4.666;2023-01-08T00:24:48;36.09;33.61;38.32;;
66449;Laerm;56828;52.294;4.666;2023-01-08T00:24:59;35.11;32.78;38.49;;
66449;Laerm;56828;52.294;4.666;2023-01-08T00:25:09;35.89;33.91;38.47;;
66449;Laerm;56828;52.294;4.666;2023-01-08T00:25:20;37.05;34.08;41.73;;
66449;Laerm;56828;52.294;4.666;2023-01-08T00:25:38;38.95;32.89;49.37;;
66449;Laerm;56828;52.294;4.666;2023-01-08T00:25:48;37.31;33.89;49.36;;
66449;Laerm;56828;52.294;4.666;2023-01-08T00:25:59;52.23;34.08;66.61;;
66449;Laerm;56828;52.294;4.666;2023-01-08T00:26:10;37.48;34.03;44.54;;
66449;Laerm;56828;52.294;4.666;2023-01-08T00:26:21;39.11;35.03;45.94;;
66449;Laerm;56828;52.294;4.666;2023-01-08T00:26:32;35.86;33.36;38.00;;
66449;Laerm;56828;52.294;4.666;2023-01-08T00:26:42;34.71;32.97;36.45;;
66449;Laerm;56828;52.294;4.666;2023-01-08T00:26:53;35.83;33.32;41.84;;
66449;Laerm;56828;52.294;4.666;2023-01-08T00:27:03;36.20;34.28;38.33;;
66449;Laerm;56828;52.294;4.666;2023-01-08T00:27:13;37.63;34.97;41.47;;
66449;Laerm;56828;52.294;4.666;2023-01-08T00:27:24;40.68;36.67;47.35;;
66449;Laerm;56828;52.294;4.666;2023-01-08T00:27:34;37.44;33.38;41.44;;
66449;Laerm;56828;52.294;4.666;2023-01-08T00:27:44;35.18;33.12;37.68;;
66449;Laerm;56828;52.294;4.666;2023-01-08T00:27:55;35.95;34.15;37.65;;
66449;Laerm;56828;52.294;4.666;2023-01-08T00:28:05;35.32;33.22;37.31;;
66449;Laerm;56828;52.294;4.666;2023-01-08T00:28:16;36.98;33.20;45.24;;
66449;Laerm;56828;52.294;4.666;2023-01-08T00:28:26;35.92;33.52;39.17;;
66449;Laerm;56828;52.294;4.666;2023-01-08T00:28:52;36.65;34.91;38.79;;
66449;Laerm;56828;52.294;4.666;2023-01-08T00:29:02;39.37;33.67;53.52;;
66449;Laerm;56828;52.294;4.666;2023-01-08T00:29:12;43.23;33.24;56.24;;
66449;Laerm;56828;52.294;4.666;2023-01-08T00:29:22;42.65;32.65;54.57;;
66449;Laerm;56828;52.294;4.666;2023-01-08T00:29:33;40.27;32.42;51.59;;
66449;Laerm;56828;52.294;4.666;2023-01-08T00:29:43;35.54;33.09;38.40;;
66449;Laerm;56828;52.294;4.666;2023-01-08T00:29:54;37.16;33.57;44.11;;
66449;Laerm;56828;52.294;4.666;2023-01-08T00:30:04;35.11;33.46;37.16;;
66449;Laerm;56828;52.294;4.666;2023-01-08T00:30:15;35.77;33.24;42.24;;
66449;Laerm;56828;52.294;4.666;2023-01-08T00:30:25;40.65;33.30;53.31;;
66449;Laerm;56828;52.294;4.666;2023-01-08T00:30:35;36.62;33.66;43.53;;
66449;Laerm;56828;52.294;4.666;2023-01-08T00:30:46;34.93;32.95;36.62;;
66449;Laerm;56828;52.294;4.666;2023-01-08T00:30:57;35.22;33.19;38.65;;
66449;Laerm;56828;52.294;4.666;2023-01-08T00:31:08;35.63;33.59;41.03;;
66449;Laerm;56828;52.294;4.666;2023-01-08T00:31:19;38.32;34.67;43.16;;
66449;Laerm;56828;52.294;4.666;2023-01-08T00:31:29;40.68;35.05;46.09;;
66449;Laerm;56828;52.294;4.666;2023-01-08T00:31:39;44.77;41.61;47.86;;
66449;Laerm;56828;52.294;4.666;2023-01-08T00:31:50;43.14;38.18;48.34;;
66449;Laerm;56828;52.294;4.666;2023-01-08T00:32:01;46.61;39.55;55.02;;
66449;Laerm;56828;52.294;4.666;2023-01-08T00:32:13;50.05;36.67;63.59;;
66449;Laerm;56828;52.294;4.666;2023-01-08T00:32:26;37.45;34.96;40.67;;
66449;Laerm;56828;52.294;4.666;2023-01-08T00:32:41;37.05;34.47;49.25;;
66449;Laerm;56828;52.294;4.666;2023-01-08T00:33:13;35.32;33.03;47.21;;
66449;Laerm;56828;52.294;4.666;2023-01-08T00:33:23;34.80;32.79;37.02;;
66449;Laerm;56828;52.294;4.666;2023-01-08T00:33:33;35.29;32.52;42.77;;
66449;Laerm;56828;52.294;4.666;2023-01-08T00:33:44;35.21;33.15;37.22;;
66449;Laerm;56828;52.294;4.666;2023-01-08T00:34:06;35.62;32.91;45.05;;
66449;Laerm;56828;52.294;4.666;2023-01-08T00:34:17;36.74;34.00;43.82;;
66449;Laerm;56828;52.294;4.666;2023-01-08T00:34:30;35.42;33.69;37.35;;
66449;Laerm;56828;52.294;4.666;2023-01-08T00:34:40;34.95;32.89;37.29;;
66449;Laerm;56828;52.294;4.666;2023-01-08T00:34:55;36.37;34.68;38.66;;
66449;Laerm;56828;52.294;4.666;2023-01-08T00:35:08;45.92;34.98;60.02;;
66449;Laerm;56828;52.294;4.666;2023-01-08T00:35:19;40.69;36.64;52.50;;
66449;Laerm;56828;52.294;4.666;2023-01-08T00:35:29;47.24;35.82;61.01;;
66449;Laerm;56828;52.294;4.666;2023-01-08T00:35:55;44.74;33.65;60.13;;
66449;Laerm;56828;52.294;4.666;2023-01-08T00:36:11;39.36;33.96;51.00;;
66449;Laerm;56828;52.294;4.666;2023-01-08T00:36:27;46.51;34.97;60.41;;
66449;Laerm;56828;52.294;4.666;2023-01-08T00:36:40;40.17;36.45;43.65;;
66449;Laerm;56828;52.294;4.666;2023-01-08T00:36:50;39.60;36.31;43.03;;
66449;Laerm;56828;52.294;4.666;2023-01-08T00:37:03;37.72;35.37;40.15;;
66449;Laerm;56828;52.294;4.666;2023-01-08T00:37:35;38.93;34.83;50.27;;
66449;Laerm;56828;52.294;4.666;2023-01-08T00:37:48;39.11;36.48;42.92;;
66449;Laerm;56828;52.294;4.666;2023-01-08T00:38:01;40.96;37.35;50.64;;
66449;Laerm;56828;52.294;4.666;2023-01-08T00:38:18;38.56;34.12;43.90;;
66449;Laerm;56828;52.294;4.666;2023-01-08T00:38:31;36.75;34.56;38.94;;
66449;Laerm;56828;52.294;4.666;2023-01-08T00:38:41;36.29;34.71;38.12;;
66449;Laerm;56828;52.294;4.666;2023-01-08T00:38:58;38.34;35.17;44.09;;
66449;Laerm;56828;52.294;4.666;2023-01-08T00:39:12;41.49;38.60;48.02;;
66449;Laerm;56828;52.294;4.666;2023-01-08T00:39:25;37.84;35.12;40.78;;
66449;Laerm;56828;52.294;4.666;2023-01-08T00:39:40;35.83;33.77;43.30;;
66449;Laerm;56828;52.294;4.666;2023-01-08T00:39:53;35.37;32.74;37.58;;
66449;Laerm;56828;52.294;4.666;2023-01-08T00:40:17;37.61;33.70;44.81;;
66449;Laerm;56828;52.294;4.666;2023-01-08T00:40:27;39.09;36.24;41.45;;
66449;Laerm;56828;52.294;4.666;2023-01-08T00:40:38;36.06;33.71;39.20;;
66449;Laerm;56828;52.294;4.666;2023-01-08T00:40:49;38.78;34.45;52.66;;
66449;Laerm;56828;52.294;4.666;2023-01-08T00:40:59;46.68;36.64;61.91;;
66449;Laerm;56828;52.294;4.666;2023-01-08T00:41:10;43.59;34.61;60.15;;
66449;Laerm;56828;52.294;4.666;2023-01-08T00:41:21;38.24;34.50;53.86;;
66449;Laerm;56828;52.294;4.666;2023-01-08T00:41:31;36.87;34.65;39.21;;
66449;Laerm;56828;52.294;4.666;2023-01-08T00:41:42;36.46;33.85;40.24;;
66449;Laerm;56828;52.294;4.666;2023-01-08T00:41:54;37.41;33.31;48.19;;
66449;Laerm;56828;52.294;4.666;2023-01-08T00:42:04;38.14;33.06;49.24;;
66449;Laerm;56828;52.294;4.666;2023-01-08T00:42:15;35.26;33.14;38.61;;
66449;Laerm;56828;52.294;4.666;2023-01-08T00:42:25;36.65;33.86;42.22;;
66449;Laerm;56828;52.294;4.666;2023-01-08T00:42:35;39.19;34.54;50.30;;
66449;Laerm;56828;52.294;4.666;2023-01-08T00:42:46;39.36;34.99;48.91;;
66449;Laerm;56828;52.294;4.666;2023-01-08T00:42:56;38.29;34.51;42.54;;
66449;Laerm;56828;52.294;4.666;2023-01-08T00:43:07;37.91;34.88;40.48;;
66449;Laerm;56828;52.294;4.666;2023-01-08T00:43:17;35.84;34.02;37.56;;
66449;Laerm;56828;52.294;4.666;2023-01-08T00:43:27;35.99;33.96;40.57;;
66449;Laerm;56828;52.294;4.666;2023-01-08T00:43:38;35.47;33.47;37.74;;
66449;Laerm;56828;52.294;4.666;2023-01-08T00:44:08;36.04;32.13;43.07;;
66449;Laerm;56828;52.294;4.666;2023-01-08T00:44:19;33.60;31.83;36.24;;
66449;Laerm;56828;52.294;4.666;2023-01-08T00:44:29;33.30;31.07;35.97;;
66449;Laerm;56828;52.294;4.666;2023-01-08T00:44:39;34.40;31.59;44.36;;
66449;Laerm;56828;52.294;4.666;2023-01-08T00:44:49;35.59;31.90;42.17;;
66449;Laerm;56828;52.294;4.666;2023-01-08T00:45:00;33.91;32.38;35.75;;
66449;Laerm;56828;52.294;4.666;2023-01-08T00:45:11;34.63;32.54;37.25;;
66449;Laerm;56828;52.294;4.666;2023-01-08T00:45:21;34.38;32.81;36.43;;
66449;Laerm;56828;52.294;4.666;2023-01-08T00:45:31;35.21;33.38;36.81;;
66449;Laerm;56828;52.294;4.666;2023-01-08T00:45:50;36.16;33.73;38.55;;
66449;Laerm;56828;52.294;4.666;2023-01-08T00:46:09;37.34;33.91;42.94;;
66449;Laerm;56828;52.294;4.666;2023-01-08T00:46:19;38.88;34.79;44.43;;
66449;Laerm;56828;52.294;4.666;2023-01-08T00:46:29;40.91;35.40;48.58;;
66449;Laerm;56828;52.294;4.666;2023-01-08T00:46:42;43.60;38.07;50.18;;
66449;Laerm;56828;52.294;4.666;2023-01-08T00:46:59;41.36;33.54;52.62;;
66449;Laerm;56828;52.294;4.666;2023-01-08T00:47:09;38.03;32.78;46.12;;
66449;Laerm;56828;52.294;4.666;2023-01-08T00:47:20;33.88;32.13;35.86;;
66449;Laerm;56828;52.294;4.666;2023-01-08T00:47:30;34.28;32.30;36.70;;
66449;Laerm;56828;52.294;4.666;2023-01-08T00:47:40;35.37;32.81;43.08;;
66449;Laerm;56828;52.294;4.666;2023-01-08T00:47:51;34.41;31.86;41.54;;
66449;Laerm;56828;52.294;4.666;2023-01-08T00:48:01;34.14;32.23;36.32;;
66449;Laerm;56828;52.294;4.666;2023-01-08T00:48:11;34.32;32.42;38.73;;
66449;Laerm;56828;52.294;4.666;2023-01-08T00:48:22;34.80;32.92;38.33;;
66449;Laerm;56828;52.294;4.666;2023-01-08T00:48:33;34.04;32.31;36.28;;
66449;Laerm;56828;52.294;4.666;2023-01-08T00:48:47;40.35;32.92;55.32;;
66449;Laerm;56828;52.294;4.666;2023-01-08T00:48:57;39.95;33.12;51.98;;
66449;Laerm;56828;52.294;4.666;2023-01-08T00:49:08;42.32;33.33;55.03;;
66449;Laerm;56828;52.294;4.666;2023-01-08T00:49:19;44.88;34.90;58.10;;
66449;Laerm;56828;52.294;4.666;2023-01-08T00:49:34;37.77;33.35;49.46;;
66449;Laerm;56828;52.294;4.666;2023-01-08T00:49:44;35.57;33.38;44.84;;
66449;Laerm;56828;52.294;4.666;2023-01-08T00:49:55;36.20;33.41;39.96;;
66449;Laerm;56828;52.294;4.666;2023-01-08T00:50:05;35.49;33.54;37.32;;
66449;Laerm;56828;52.294;4.666;2023-01-08T00:50:16;38.25;35.11;41.00;;
66449;Laerm;56828;52.294;4.666;2023-01-08T00:50:31;36.31;34.16;39.74;;
66449;Laerm;56828;52.294;4.666;2023-01-08T00:51:06;35.44;33.06;39.89;;
66449;Laerm;56828;52.294;4.666;2023-01-08T00:51:17;35.01;33.10;36.85;;
66449;Laerm;56828;52.294;4.666;2023-01-08T00:51:27;35.76;33.41;38.13;;
66449;Laerm;56828;52.294;4.666;2023-01-08T00:51:38;34.15;31.81;39.01;;
66449;Laerm;56828;52.294;4.666;2023-01-08T00:51:56;33.64;31.40;36.85;;
66449;Laerm;56828;52.294;4.666;2023-01-08T00:52:06;33.59;31.59;35.28;;
66449;Laerm;56828;52.294;4.666;2023-01-08T00:52:30;34.63;32.34;45.79;;
66449;Laerm;56828;52.294;4.666;2023-01-08T00:53:00;35.50;33.15;39.84;;
66449;Laerm;56828;52.294;4.666;2023-01-08T00:53:12;38.03;33.55;42.68;;
66449;Laerm;56828;52.294;4.666;2023-01-08T00:53:23;41.57;35.13;46.95;;
66449;Laerm;56828;52.294;4.666;2023-01-08T00:53:33;41.10;33.97;45.36;;
66449;Laerm;56828;52.294;4.666;2023-01-08T00:53:43;35.95;33.48;38.10;;
66449;Laerm;56828;52.294;4.666;2023-01-08T00:53:54;43.00;35.47;57.35;;
66449;Laerm;56828;52.294;4.666;2023-01-08T00:54:04;38.32;34.83;44.76;;
66449;Laerm;56828;52.294;4.666;2023-01-08T00:54:15;35.07;33.08;37.39;;
66449;Laerm;56828;52.294;4.666;2023-01-08T00:54:25;34.48;32.41;36.27;;
66449;Laerm;56828;52.294;4.666;2023-01-08T00:54:35;34.72;32.71;37.73;;
66449;Laerm;56828;52.294;4.666;2023-01-08T00:54:46;34.66;32.93;38.35;;
66449;Laerm;56828;52.294;4.666;2023-01-08T00:54:56;34.29;32.55;37.20;;
66449;Laerm;56828;52.294;4.666;2023-01-08T00:55:08;34.01;31.84;37.73;;
66449;Laerm;56828;52.294;4.666;2023-01-08T00:55:18;33.16;31.39;34.69;;
66449;Laerm;56828;52.294;4.666;2023-01-08T00:55:29;33.12;31.23;34.81;;
66449;Laerm;56828;52.294;4.666;2023-01-08T00:55:39;33.10;31.11;39.83;;
66449;Laerm;56828;52.294;4.666;2023-01-08T00:55:50;33.12;31.40;35.37;;
66449;Laerm;56828;52.294;4.666;2023-01-08T00:56:01;35.13;32.28;39.09;;
66449;Laerm;56828;52.294;4.666;2023-01-08T00:56:11;33.16;31.21;36.36;;
66449;Laerm;56828;52.294;4.666;2023-01-08T00:56:22;34.25;31.60;40.53;;
66449;Laerm;56828;52.294;4.666;2023-01-08T00:56:32;33.12;31.55;35.33;;
66449;Laerm;56828;52.294;4.666;2023-01-08T00:56:42;33.68;31.24;37.07;;
66449;Laerm;56828;52.294;4.666;2023-01-08T00:56:56;33.24;31.34;35.25;;
66449;Laerm;56828;52.294;4.666;2023-01-08T00:57:06;33.21;31.42;34.93;;
66449;Laerm;56828;52.294;4.666;2023-01-08T00:57:16;33.94;31.90;36.12;;
66449;Laerm;56828;52.294;4.666;2023-01-08T00:57:32;33.51;31.54;35.51;;
66449;Laerm;56828;52.294;4.666;2023-01-08T00:57:42;33.46;31.18;43.07;;
66449;Laerm;56828;52.294;4.666;2023-01-08T00:57:52;34.04;31.47;47.02;;
66449;Laerm;56828;52.294;4.666;2023-01-08T00:58:07;34.40;32.08;38.02;;
66449;Laerm;56828;52.294;4.666;2023-01-08T00:58:17;35.89;31.82;47.50;;
66449;Laerm;56828;52.294;4.666;2023-01-08T00:58:27;40.56;31.65;57.75;;
66449;Laerm;56828;52.294;4.666;2023-01-08T00:58:38;38.42;32.10;54.08;;
66449;Laerm;56828;52.294;4.666;2023-01-08T00:58:48;35.23;32.87;37.62;;
66449;Laerm;56828;52.294;4.666;2023-01-08T00:58:58;34.08;31.02;37.31;;
66449;Laerm;56828;52.294;4.666;2023-01-08T00:59:09;33.10;31.17;36.67;;
66449;Laerm;56828;52.294;4.666;2023-01-08T00:59:19;34.22;31.52;39.83;;
66449;Laerm;56828;52.294;4.666;2023-01-08T00:59:29;35.43;32.33;41.08;;
66449;Laerm;56828;52.294;4.666;2023-01-08T00:59:40;39.03;32.38;50.89;;
66449;Laerm;56828;52.294;4.666;2023-01-08T00:59:50;36.81;31.64;47.13;;
66449;Laerm;56828;52.294;4.666;2023-01-08T01:00:01;39.75;31.86;53.67;;
66449;Laerm;56828;52.294;4.666;2023-01-08T01:00:13;39.40;32.20;48.86;;
66449;Laerm;56828;52.294;4.666;2023-01-08T01:00:42;35.45;31.94;48.18;;
66449;Laerm;56828;52.294;4.666;2023-01-08T01:01:08;42.61;33.34;52.99;;
66449;Laerm;56828;52.294;4.666;2023-01-08T01:01:43;34.34;31.53;42.21;;
66449;Laerm;56828;52.294;4.666;2023-01-08T01:01:53;35.21;33.27;38.58;;
66449;Laerm;56828;52.294;4.666;2023-01-08T01:02:04;34.01;31.68;36.73;;
66449;Laerm;56828;52.294;4.666;2023-01-08T01:02:14;34.33;32.69;36.32;;
66449;Laerm;56828;52.294;4.666;2023-01-08T01:02:40;34.71;32.24;38.69;;
66449;Laerm;56828;52.294;4.666;2023-01-08T01:02:50;36.24;32.88;42.05;;
66449;Laerm;56828;52.294;4.666;2023-01-08T01:03:01;36.99;34.39;43.39;;
66449;Laerm;56828;52.294;4.666;2023-01-08T01:03:11;36.19;33.17;38.63;;
66449;Laerm;56828;52.294;4.666;2023-01-08T01:03:21;35.41;33.14;37.48;;
66449;Laerm;56828;52.294;4.666;2023-01-08T01:03:32;36.00;34.49;38.69;;
66449;Laerm;56828;52.294;4.666;2023-01-08T01:03:42;37.71;34.27;41.50;;
66449;Laerm;56828;52.294;4.666;2023-01-08T01:03:52;40.23;33.98;59.87;;
66449;Laerm;56828;52.294;4.666;2023-01-08T01:04:03;37.96;34.64;40.51;;
66449;Laerm;56828;52.294;4.666;2023-01-08T01:04:13;42.35;38.96;45.38;;
66449;Laerm;56828;52.294;4.666;2023-01-08T01:04:24;36.79;33.40;40.18;;
66449;Laerm;56828;52.294;4.666;2023-01-08T01:04:35;37.00;34.90;39.42;;
66449;Laerm;56828;52.294;4.666;2023-01-08T01:04:45;35.91;33.77;39.20;;
66449;Laerm;56828;52.294;4.666;2023-01-08T01:04:55;38.55;32.83;49.80;;
66449;Laerm;56828;52.294;4.666;2023-01-08T01:05:06;37.13;32.89;50.58;;
66449;Laerm;56828;52.294;4.666;2023-01-08T01:05:16;36.50;34.12;38.45;;
66449;Laerm;56828;52.294;4.666;2023-01-08T01:05:27;36.64;33.06;51.37;;
66449;Laerm;56828;52.294;4.666;2023-01-08T01:05:37;34.78;32.95;38.06;;
66449;Laerm;56828;52.294;4.666;2023-01-08T01:05:47;34.94;32.67;38.37;;
66449;Laerm;56828;52.294;4.666;2023-01-08T01:06:01;33.86;32.22;35.69;;
66449;Laerm;56828;52.294;4.666;2023-01-08T01:06:12;35.25;32.87;45.60;;
66449;Laerm;56828;52.294;4.666;2023-01-08T01:06:23;34.98;33.22;38.03;;
66449;Laerm;56828;52.294;4.666;2023-01-08T01:06:33;35.77;32.64;39.06;;
66449;Laerm;56828;52.294;4.666;2023-01-08T01:06:43;34.46;32.50;36.50;;
66449;Laerm;56828;52.294;4.666;2023-01-08T01:06:54;34.50;32.84;36.25;;
66449;Laerm;56828;52.294;4.666;2023-01-08T01:07:04;35.17;32.49;38.61;;
66449;Laerm;56828;52.294;4.666;2023-01-08T01:07:14;34.85;32.38;41.04;;
66449;Laerm;56828;52.294;4.666;2023-01-08T01:07:25;33.72;32.04;35.77;;
66449;Laerm;56828;52.294;4.666;2023-01-08T01:07:35;33.90;31.86;36.21;;
66449;Laerm;56828;52.294;4.666;2023-01-08T01:07:45;35.12;32.69;37.04;;